Time;durP1;ratioP1;P1;durP2;ratioP2;P2;SDS_P1;SDS_P2;PMS_P1;PMS_P2;Temp;Humidity;BMP_temperature;BMP_pressure;BME280_temperature;BME280_humidity;BME280_pressure;Samples;Min_cycle;Max_cycle;Signal;HPM_P1;HPM_P2
2022/06/24 00:02:25;;;;;;;7.57;2.30;;;;;;;;;;5021521;28;20214;-60
2022/06/24 00:04:55;;;;;;;9.07;3.00;;;;;;;;;;5021156;28;20296;-60
2022/06/24 00:07:23;;;;;;;11.40;3.40;;;;;;;;;;5021241;28;20235;-60
2022/06/24 00:09:51;;;;;;;8.80;2.80;;;;;;;;;;5021247;28;20215;-60
2022/06/24 00:12:21;;;;;;;14.13;2.77;;;;;;;;;;5020849;28;20247;-60
2022/06/24 00:14:57;;;;;;;10.07;2.97;;;;;;;;;;5020692;28;20230;-60
2022/06/24 00:17:28;;;;;;;12.53;3.50;;;;;;;;;;5020812;28;20233;-60
2022/06/24 00:19:57;;;;;;;8.30;2.80;;;;;;;;;;5001539;28;20211;-60
2022/06/24 00:22:26;;;;;;;8.17;3.47;;;;;;;;;;5001479;28;20245;-60
2022/06/24 00:25:08;;;;;;;10.20;2.73;;;;;;;;;;5020624;28;20574;-60
2022/06/24 00:27:38;;;;;;;9.27;3.10;;;;;;;;;;5001045;28;20258;-60
2022/06/24 00:30:11;;;;;;;12.07;3.20;;;;;;;;;;5001011;28;20216;-60
2022/06/24 00:32:39;;;;;;;10.97;3.47;;;;;;;;;;5001276;28;20204;-60
2022/06/24 00:35:13;;;;;;;9.67;3.23;;;;;;;;;;5002414;28;20207;-60
2022/06/24 00:37:42;;;;;;;10.37;3.33;;;;;;;;;;5000983;28;20578;-60
2022/06/24 00:40:24;;;;;;;8.73;2.80;;;;;;;;;;5000926;28;20205;-60
2022/06/24 00:42:54;;;;;;;10.53;3.10;;;;;;;;;;5000670;28;20211;-60
2022/06/24 00:45:25;;;;;;;11.27;3.30;;;;;;;;;;5003369;28;20255;-60
2022/06/24 00:47:55;;;;;;;14.43;3.70;;;;;;;;;;5000666;28;20227;-60
2022/06/24 00:50:24;;;;;;;9.20;2.93;;;;;;;;;;5000798;28;20242;-60
2022/06/24 00:52:53;;;;;;;10.77;2.70;;;;;;;;;;5000618;28;20634;-60
2022/06/24 00:55:22;;;;;;;12.43;3.03;;;;;;;;;;5000738;28;20216;-60
2022/06/24 00:57:50;;;;;;;7.33;3.07;;;;;;;;;;5000290;28;20276;-60
2022/06/24 01:00:20;;;;;;;7.00;2.63;;;;;;;;;;5000161;28;20582;-60
2022/06/24 01:02:49;;;;;;;7.93;3.00;;;;;;;;;;4999813;28;20265;-60
2022/06/24 01:05:18;;;;;;;13.40;2.90;;;;;;;;;;5000478;28;20209;-60
2022/06/24 01:07:46;;;;;;;8.23;2.83;;;;;;;;;;5000308;28;20230;-60
2022/06/24 01:10:14;;;;;;;11.37;3.37;;;;;;;;;;5000329;28;20242;-60
2022/06/24 01:12:42;;;;;;;10.37;3.90;;;;;;;;;;5000255;28;20212;-60
2022/06/24 01:15:10;;;;;;;13.47;3.27;;;;;;;;;;5000335;28;20582;-60
2022/06/24 01:17:40;;;;;;;9.23;3.70;;;;;;;;;;5013525;28;20252;-60
2022/06/24 01:20:09;;;;;;;4.90;2.80;;;;;;;;;;5000508;28;20348;-60
2022/06/24 01:22:39;;;;;;;10.57;3.00;;;;;;;;;;5000133;28;20233;-60
2022/06/24 01:25:08;;;;;;;13.10;3.23;;;;;;;;;;4999969;28;20213;-60
2022/06/24 01:27:36;;;;;;;13.63;3.30;;;;;;;;;;4999983;28;20270;-60
2022/06/24 01:30:04;;;;;;;6.97;3.23;;;;;;;;;;5000074;28;20216;-60
2022/06/24 01:32:32;;;;;;;7.27;2.73;;;;;;;;;;4999897;28;20261;-60
2022/06/24 01:35:01;;;;;;;10.20;2.80;;;;;;;;;;5002326;28;20749;-60
2022/06/24 01:37:29;;;;;;;9.03;2.53;;;;;;;;;;4999685;28;20760;-60
2022/06/24 01:39:59;;;;;;;8.70;2.47;;;;;;;;;;4999902;28;20278;-60
2022/06/24 01:42:27;;;;;;;8.40;2.20;;;;;;;;;;4999651;28;20242;-60
2022/06/24 01:44:55;;;;;;;4.43;2.20;;;;;;;;;;5002652;28;20227;-60
2022/06/24 01:47:23;;;;;;;6.67;2.13;;;;;;;;;;4999416;28;20265;-60
2022/06/24 01:49:51;;;;;;;8.90;2.90;;;;;;;;;;4999509;28;20214;-60
2022/06/24 01:52:19;;;;;;;8.03;2.10;;;;;;;;;;5006282;28;20215;-60
2022/06/24 01:54:47;;;;;;;5.43;1.80;;;;;;;;;;5019124;28;20228;-60
2022/06/24 01:57:17;;;;;;;8.40;2.10;;;;;;;;;;5018648;28;20662;-60
2022/06/24 01:59:45;;;;;;;5.10;1.93;;;;;;;;;;5019109;28;20244;-60
2022/06/24 02:02:13;;;;;;;5.10;2.00;;;;;;;;;;5018991;28;20204;-60
2022/06/24 02:04:41;;;;;;;5.03;1.90;;;;;;;;;;5018861;28;20301;-60
2022/06/24 02:07:09;;;;;;;8.07;2.40;;;;;;;;;;5018964;28;20258;-60
2022/06/24 02:13:26;;;;;;;5.23;2.20;;;;;;;;;;5018829;28;20214;-60
2022/06/24 02:15:12;;;;;;;5.03;1.70;;;;;;;;;;5018014;28;20625;-60
2022/06/24 02:17:40;;;;;;;6.23;1.83;;;;;;;;;;5016603;28;20239;-60
2022/06/24 02:20:08;;;;;;;5.53;1.60;;;;;;;;;;4999025;28;20211;-60
2022/06/24 02:22:36;;;;;;;5.33;1.50;;;;;;;;;;4998901;28;20245;-60
2022/06/24 02:25:04;;;;;;;4.53;1.50;;;;;;;;;;4998838;28;20592;-60
2022/06/24 02:27:33;;;;;;;3.17;1.43;;;;;;;;;;4998796;28;20254;-60
2022/06/24 02:30:01;;;;;;;7.67;1.47;;;;;;;;;;4998844;28;20577;-60
2022/06/24 02:32:29;;;;;;;5.30;1.60;;;;;;;;;;4999087;28;20207;-60
2022/06/24 02:34:58;;;;;;;4.73;1.53;;;;;;;;;;4999181;28;20284;-60
2022/06/24 02:37:26;;;;;;;3.33;1.43;;;;;;;;;;4998992;28;20245;-60
2022/06/24 02:39:54;;;;;;;4.90;1.50;;;;;;;;;;4998955;28;20219;-60
2022/06/24 02:42:22;;;;;;;3.30;1.30;;;;;;;;;;4998256;28;20211;-60
2022/06/24 02:44:51;;;;;;;4.00;1.70;;;;;;;;;;5001094;28;20267;-60
2022/06/24 02:47:19;;;;;;;4.53;1.40;;;;;;;;;;5005309;28;20261;-60
2022/06/24 02:49:47;;;;;;;4.50;1.60;;;;;;;;;;5018454;28;20250;-60
2022/06/24 02:52:15;;;;;;;2.80;1.50;;;;;;;;;;5018372;28;20268;-60
2022/06/24 02:54:43;;;;;;;10.00;1.60;;;;;;;;;;5018041;28;20309;-60
2022/06/24 02:57:11;;;;;;;3.23;1.50;;;;;;;;;;5017839;28;20348;-60
2022/06/24 02:59:39;;;;;;;2.87;1.60;;;;;;;;;;5018242;28;20213;-60
2022/06/24 03:02:09;;;;;;;3.77;1.47;;;;;;;;;;5018273;28;20239;-60
2022/06/24 03:04:37;;;;;;;3.33;1.37;;;;;;;;;;5017961;28;20229;-60
2022/06/24 03:07:05;;;;;;;2.45;1.40;;;;;;;;;;5017827;28;20628;-60
2022/06/24 03:09:33;;;;;;;5.17;1.53;;;;;;;;;;5018233;28;20292;-60
2022/06/24 03:12:01;;;;;;;5.40;1.30;;;;;;;;;;5017568;28;20245;-60
2022/06/24 03:14:29;;;;;;;2.70;1.20;;;;;;;;;;5017711;28;20268;-60
2022/06/24 03:16:57;;;;;;;6.37;1.83;;;;;;;;;;5017692;28;20247;-60
2022/06/24 03:19:26;;;;;;;5.97;1.53;;;;;;;;;;5001036;28;20730;-60
2022/06/24 03:21:54;;;;;;;4.03;1.30;;;;;;;;;;4998459;28;20213;-60
2022/06/24 03:24:22;;;;;;;2.33;1.40;;;;;;;;;;5018360;28;20276;-60
2022/06/24 03:26:50;;;;;;;4.60;1.60;;;;;;;;;;5002275;28;20211;-60
2022/06/24 03:29:18;;;;;;;2.63;1.40;;;;;;;;;;5004635;28;20238;-60
2022/06/24 03:31:46;;;;;;;2.23;2.10;;;;;;;;;;5004755;28;20218;-60
2022/06/24 03:34:14;;;;;;;2.03;1.20;;;;;;;;;;5006511;28;20228;-60
2022/06/24 03:36:43;;;;;;;2.80;1.50;;;;;;;;;;5004503;28;20215;-60
2022/06/24 03:39:11;;;;;;;6.20;1.43;;;;;;;;;;5004808;28;20234;-60
2022/06/24 03:41:39;;;;;;;1.87;1.50;;;;;;;;;;5004361;28;20238;-60
2022/06/24 03:44:07;;;;;;;5.50;1.67;;;;;;;;;;5007567;28;20261;-60
2022/06/24 03:46:35;;;;;;;5.53;3.63;;;;;;;;;;5004510;28;20241;-60
2022/06/24 03:49:03;;;;;;;4.80;1.83;;;;;;;;;;5004532;28;20229;-60
2022/06/24 03:51:31;;;;;;;3.77;1.47;;;;;;;;;;5004639;28;20248;-60
2022/06/24 03:54:01;;;;;;;4.40;1.43;;;;;;;;;;5004659;28;20265;-60
2022/06/24 03:56:29;;;;;;;3.37;1.43;;;;;;;;;;5003797;28;20241;-60
2022/06/24 03:58:57;;;;;;;4.73;1.50;;;;;;;;;;5004601;28;20253;-60
2022/06/24 04:01:25;;;;;;;3.83;1.53;;;;;;;;;;5004448;28;20238;-60
2022/06/24 04:03:53;;;;;;;5.17;1.70;;;;;;;;;;5004553;28;20276;-60
2022/06/24 04:06:21;;;;;;;4.43;1.97;;;;;;;;;;5004426;28;20216;-60
2022/06/24 04:08:49;;;;;;;3.67;1.70;;;;;;;;;;5004444;28;20233;-60
2022/06/24 04:11:19;;;;;;;1.43;1.20;;;;;;;;;;5004046;28;20244;-60
2022/06/24 04:13:47;;;;;;;4.20;1.40;;;;;;;;;;5004201;28;20237;-60
2022/06/24 04:16:15;;;;;;;6.37;3.03;;;;;;;;;;5008355;28;20200;-60
2022/06/24 04:18:43;;;;;;;4.57;2.23;;;;;;;;;;5013128;28;20208;-60
2022/06/24 04:21:11;;;;;;;2.37;1.90;;;;;;;;;;5004024;28;20739;-60
2022/06/24 04:23:40;;;;;;;4.73;2.23;;;;;;;;;;5020725;28;20255;-60
2022/06/24 04:26:08;;;;;;;3.20;1.70;;;;;;;;;;5006241;28;20288;-60
2022/06/24 04:28:38;;;;;;;3.13;1.53;;;;;;;;;;5004295;28;20281;-60
2022/06/24 04:31:06;;;;;;;5.60;1.60;;;;;;;;;;5004025;28;20241;-60
2022/06/24 04:33:34;;;;;;;7.37;1.67;;;;;;;;;;5005417;28;20282;-60
2022/06/24 04:36:02;;;;;;;4.17;1.80;;;;;;;;;;5004079;28;20210;-60
2022/06/24 04:38:30;;;;;;;5.33;2.07;;;;;;;;;;5001027;28;20206;-60
2022/06/24 04:40:58;;;;;;;5.10;1.93;;;;;;;;;;5000845;28;20227;-60
2022/06/24 04:43:26;;;;;;;6.47;1.70;;;;;;;;;;5003502;28;20229;-60
2022/06/24 04:45:55;;;;;;;5.23;1.70;;;;;;;;;;5000732;28;20605;-60
2022/06/24 04:48:23;;;;;;;5.17;2.30;;;;;;;;;;5000668;28;20704;-60
2022/06/24 04:50:51;;;;;;;7.70;2.23;;;;;;;;;;5000790;28;20210;-60
2022/06/24 04:53:19;;;;;;;4.17;1.90;;;;;;;;;;5000785;28;20264;-60
2022/06/24 04:55:47;;;;;;;5.23;2.10;;;;;;;;;;5000582;28;20239;-60
2022/06/24 04:58:18;;;;;;;5.23;1.70;;;;;;;;;;5000571;28;20259;-60
2022/06/24 05:00:46;;;;;;;3.13;1.77;;;;;;;;;;5000894;28;20223;-60
2022/06/24 05:03:15;;;;;;;5.70;2.03;;;;;;;;;;5000698;28;20265;-60
2022/06/24 05:05:44;;;;;;;3.30;2.00;;;;;;;;;;5000535;28;20555;-60
2022/06/24 05:08:11;;;;;;;5.23;2.17;;;;;;;;;;5000337;28;20576;-60
2022/06/24 05:10:41;;;;;;;4.13;2.23;;;;;;;;;;5000024;28;20239;-60
2022/06/24 05:13:09;;;;;;;5.10;2.00;;;;;;;;;;5000310;28;20636;-60
2022/06/24 05:15:37;;;;;;;2.10;1.80;;;;;;;;;;5000327;28;20587;-60
2022/06/24 05:18:05;;;;;;;5.33;2.00;;;;;;;;;;5013120;28;20751;-60
2022/06/24 05:20:34;;;;;;;7.33;2.50;;;;;;;;;;5000313;28;20255;-60
2022/06/24 05:23:02;;;;;;;3.43;1.80;;;;;;;;;;5009865;28;20266;-60
2022/06/24 05:25:31;;;;;;;5.20;2.17;;;;;;;;;;5012901;28;20241;-60
2022/06/24 05:28:02;;;;;;;10.33;2.53;;;;;;;;;;5000062;28;20207;-60
2022/06/24 05:30:30;;;;;;;8.67;2.80;;;;;;;;;;5000077;28;20269;-60
2022/06/24 05:32:58;;;;;;;8.67;2.07;;;;;;;;;;4999775;28;20208;-60
2022/06/24 05:35:26;;;;;;;8.77;2.10;;;;;;;;;;5002100;28;20621;-60
2022/06/24 05:37:56;;;;;;;6.03;2.63;;;;;;;;;;4999740;28;20213;-60
2022/06/24 05:40:24;;;;;;;6.07;2.20;;;;;;;;;;4999476;28;20727;-60
2022/06/24 05:42:52;;;;;;;5.27;2.30;;;;;;;;;;4999548;28;20584;-60
2022/06/24 05:45:20;;;;;;;7.70;2.03;;;;;;;;;;5002569;28;20669;-60
2022/06/24 05:47:48;;;;;;;4.00;2.07;;;;;;;;;;4999904;28;20207;-60
2022/06/24 05:50:16;;;;;;;7.00;3.97;;;;;;;;;;4999153;28;20281;-60
2022/06/24 05:55:32;;;;;;;5.77;2.53;;;;;;;;;;4999345;28;20648;-60
2022/06/24 05:58:00;;;;;;;6.30;2.47;;;;;;;;;;4999329;28;20298;-60
2022/06/24 06:00:28;;;;;;;6.80;2.30;;;;;;;;;;4999454;28;20647;-60
2022/06/24 06:02:56;;;;;;;8.67;2.53;;;;;;;;;;4999144;28;20261;-60
2022/06/24 06:05:24;;;;;;;3.60;2.67;;;;;;;;;;4999738;28;20212;-60
2022/06/24 06:07:52;;;;;;;6.53;2.70;;;;;;;;;;4999521;28;20241;-60
2022/06/24 06:10:20;;;;;;;10.73;3.87;;;;;;;;;;4999278;28;20233;-60
2022/06/24 06:12:49;;;;;;;8.33;2.60;;;;;;;;;;4998804;28;20265;-60
2022/06/24 06:15:17;;;;;;;6.50;2.50;;;;;;;;;;4999366;28;20214;-60
2022/06/24 06:17:45;;;;;;;7.07;2.53;;;;;;;;;;5012377;28;20211;-60
2022/06/24 06:20:13;;;;;;;9.43;2.70;;;;;;;;;;4999331;28;20240;-60
2022/06/24 06:22:41;;;;;;;5.53;2.43;;;;;;;;;;4999837;28;20239;-60
2022/06/24 06:25:10;;;;;;;5.43;2.80;;;;;;;;;;5016985;28;20242;-59
2022/06/24 06:27:38;;;;;;;5.77;2.30;;;;;;;;;;4998571;28;20231;-59
2022/06/24 06:30:08;;;;;;;10.90;2.87;;;;;;;;;;4999054;28;20287;-60
2022/06/24 06:32:36;;;;;;;11.40;2.80;;;;;;;;;;4999072;28;20211;-61
2022/06/24 06:35:05;;;;;;;5.73;2.43;;;;;;;;;;5000623;28;20208;-61
2022/06/24 06:37:33;;;;;;;7.53;2.73;;;;;;;;;;4998629;28;20240;-60
2022/06/24 06:40:02;;;;;;;8.17;2.50;;;;;;;;;;4998641;28;20727;-61
2022/06/24 06:42:30;;;;;;;4.63;2.60;;;;;;;;;;5005032;28;20218;-60
2022/06/24 06:45:00;;;;;;;7.10;2.60;;;;;;;;;;5004862;28;20238;-60
2022/06/24 06:47:29;;;;;;;6.20;2.30;;;;;;;;;;4998719;28;20205;-60
2022/06/24 06:49:57;;;;;;;13.07;3.27;;;;;;;;;;4998437;28;20376;-61
2022/06/24 06:52:25;;;;;;;4.00;2.60;;;;;;;;;;4998684;28;20232;-59
2022/06/24 06:54:53;;;;;;;3.93;2.43;;;;;;;;;;4998061;28;20272;-59
2022/06/24 06:57:21;;;;;;;10.63;2.77;;;;;;;;;;4997940;28;20645;-59
2022/06/24 06:59:51;;;;;;;8.00;2.43;;;;;;;;;;4998412;28;20673;-61
2022/06/24 07:02:19;;;;;;;9.53;2.53;;;;;;;;;;4997894;28;20243;-61
2022/06/24 07:04:48;;;;;;;10.93;3.93;;;;;;;;;;4998424;28;20233;-61
2022/06/24 07:07:16;;;;;;;5.90;2.27;;;;;;;;;;4998236;28;20243;-61
2022/06/24 07:09:44;;;;;;;7.13;2.60;;;;;;;;;;4998173;28;20327;-60
2022/06/24 07:12:13;;;;;;;5.50;2.47;;;;;;;;;;4997806;28;20209;-58
2022/06/24 07:14:42;;;;;;;5.13;2.10;;;;;;;;;;4998216;28;20292;-58
2022/06/24 07:17:14;;;;;;;2.57;1.90;;;;;;;;;;5010212;28;20555;-59
2022/06/24 07:19:43;;;;;;;8.33;2.30;;;;;;;;;;4998518;28;20228;-58
2022/06/24 07:22:12;;;;;;;7.97;2.20;;;;;;;;;;4998197;28;20215;-58
2022/06/24 07:24:40;;;;;;;4.27;2.33;;;;;;;;;;5017555;28;20287;-59
2022/06/24 07:27:10;;;;;;;2.67;1.60;;;;;;;;;;4997718;28;20209;-59
2022/06/24 07:29:38;;;;;;;6.40;2.10;;;;;;;;;;4997987;28;20215;-59
2022/06/24 07:32:06;;;;;;;6.77;2.73;;;;;;;;;;5002647;28;20208;-59
2022/06/24 07:34:35;;;;;;;5.17;2.67;;;;;;;;;;5004119;28;20229;-59
2022/06/24 07:37:04;;;;;;;3.87;2.23;;;;;;;;;;5002434;28;20243;-59
2022/06/24 07:39:33;;;;;;;5.33;1.90;;;;;;;;;;5006096;28;20209;-59
2022/06/24 07:42:01;;;;;;;1.97;1.53;;;;;;;;;;5006594;28;20209;-59
2022/06/24 07:44:29;;;;;;;2.97;1.20;;;;;;;;;;5011467;28;20703;-59
2022/06/24 07:46:58;;;;;;;2.67;1.10;;;;;;;;;;5003995;28;20738;-59
2022/06/24 07:49:26;;;;;;;2.80;1.50;;;;;;;;;;5000111;28;20707;-59
2022/06/24 07:51:54;;;;;;;5.07;1.80;;;;;;;;;;5000226;28;20229;-59
2022/06/24 07:54:22;;;;;;;4.40;1.70;;;;;;;;;;4998142;28;20259;-58
2022/06/24 07:56:57;;;;;;;8.63;2.27;;;;;;;;;;5010056;28;20720;-58
2022/06/24 07:59:25;;;;;;;6.23;2.73;;;;;;;;;;4997813;28;20218;-59
2022/06/24 08:01:54;;;;;;;6.00;3.47;;;;;;;;;;4997526;28;20201;-59
2022/06/24 08:04:22;;;;;;;7.90;2.73;;;;;;;;;;4997903;28;20225;-59
2022/06/24 08:06:52;;;;;;;6.67;2.63;;;;;;;;;;4997826;28;20263;-59
2022/06/24 08:09:21;;;;;;;4.10;2.20;;;;;;;;;;4997789;28;20213;-59
2022/06/24 08:11:49;;;;;;;5.77;2.40;;;;;;;;;;4997414;28;20291;-59
2022/06/24 08:14:19;;;;;;;4.47;1.77;;;;;;;;;;5000285;28;20676;-59
2022/06/24 08:16:47;;;;;;;5.23;2.17;;;;;;;;;;5009981;28;20200;-59
2022/06/24 08:19:15;;;;;;;5.43;1.80;;;;;;;;;;5005867;28;20209;-59
2022/06/24 08:21:43;;;;;;;4.63;2.07;;;;;;;;;;5001258;28;20208;-59
2022/06/24 08:24:12;;;;;;;5.07;1.67;;;;;;;;;;5020674;28;20704;-59
2022/06/24 08:26:40;;;;;;;6.47;1.87;;;;;;;;;;5000920;28;20620;-59
2022/06/24 08:29:09;;;;;;;4.43;1.90;;;;;;;;;;5001322;28;20208;-59
2022/06/24 08:31:39;;;;;;;4.47;2.10;;;;;;;;;;5001243;28;20228;-59
2022/06/24 08:34:07;;;;;;;4.87;2.20;;;;;;;;;;5003301;28;20311;-59
2022/06/24 08:36:36;;;;;;;7.20;2.57;;;;;;;;;;5000955;28;20620;-59
2022/06/24 08:39:04;;;;;;;5.30;2.40;;;;;;;;;;5000979;28;20205;-59
2022/06/24 08:41:32;;;;;;;6.93;2.10;;;;;;;;;;5000939;28;20268;-59
2022/06/24 08:44:00;;;;;;;2.60;2.23;;;;;;;;;;5004069;28;20256;-59
2022/06/24 08:46:28;;;;;;;5.70;2.40;;;;;;;;;;5000667;28;20204;-59
2022/06/24 08:48:59;;;;;;;4.73;2.43;;;;;;;;;;5000823;28;20205;-59
2022/06/24 08:51:27;;;;;;;4.70;2.10;;;;;;;;;;5000646;28;20287;-59
2022/06/24 08:53:56;;;;;;;5.27;2.10;;;;;;;;;;5000900;28;20256;-60
2022/06/24 08:56:44;;;;;;;4.93;1.60;;;;;;;;;;4999893;28;20237;-61
2022/06/24 08:59:12;;;;;;;3.53;2.00;;;;;;;;;;5000838;28;20205;-59
2022/06/24 09:01:42;;;;;;;2.20;1.50;;;;;;;;;;5000437;28;20228;-59
2022/06/24 09:04:11;;;;;;;4.23;1.90;;;;;;;;;;5000744;28;20239;-59
2022/06/24 09:06:40;;;;;;;1.63;1.53;;;;;;;;;;5000211;28;20316;-59
2022/06/24 09:09:08;;;;;;;5.13;1.70;;;;;;;;;;5000793;28;20216;-59
2022/06/24 09:11:37;;;;;;;5.67;3.10;;;;;;;;;;5000117;28;20243;-59
2022/06/24 09:14:05;;;;;;;2.20;1.60;;;;;;;;;;5000295;28;20236;-60
2022/06/24 09:16:35;;;;;;;4.20;2.37;;;;;;;;;;5006956;28;20663;-59
2022/06/24 09:19:14;;;;;;;2.30;1.53;;;;;;;;;;5005496;28;20572;-59
2022/06/24 09:21:44;;;;;;;5.57;1.90;;;;;;;;;;5000178;28;20205;-59
2022/06/24 09:24:12;;;;;;;2.23;1.90;;;;;;;;;;5019636;28;20227;-59
2022/06/24 09:26:40;;;;;;;1.80;1.70;;;;;;;;;;4999629;28;20566;-59
2022/06/24 09:29:11;;;;;;;2.57;1.83;;;;;;;;;;5000238;28;20217;-59
2022/06/24 09:31:39;;;;;;;4.07;1.97;;;;;;;;;;5000223;28;20233;-59
2022/06/24 09:34:09;;;;;;;5.67;1.70;;;;;;;;;;5002844;28;20239;-59
2022/06/24 09:36:38;;;;;;;2.33;1.50;;;;;;;;;;5000241;28;20240;-59
2022/06/24 09:39:09;;;;;;;3.47;2.00;;;;;;;;;;4999757;28;20213;-59
2022/06/24 09:41:45;;;;;;;5.30;1.80;;;;;;;;;;4999746;28;20200;-59
2022/06/24 09:44:14;;;;;;;2.33;2.13;;;;;;;;;;5002947;28;20287;-59
2022/06/24 09:46:42;;;;;;;3.20;2.00;;;;;;;;;;4999758;28;20263;-59
2022/06/24 09:49:12;;;;;;;2.87;1.73;;;;;;;;;;4999545;28;20730;-58
2022/06/24 09:51:41;;;;;;;4.37;1.80;;;;;;;;;;4999780;28;20239;-58
2022/06/24 09:54:10;;;;;;;2.53;2.03;;;;;;;;;;4999693;28;20232;-58
2022/06/24 09:56:38;;;;;;;2.77;2.07;;;;;;;;;;4999161;28;20263;-59
2022/06/24 10:01:54;;;;;;;3.33;2.30;;;;;;;;;;4999762;28;20201;-59
2022/06/24 10:04:22;;;;;;;3.47;2.10;;;;;;;;;;4999219;28;20271;-58
2022/06/24 10:06:51;;;;;;;6.20;2.27;;;;;;;;;;4999465;28;20209;-59
2022/06/24 10:09:23;;;;;;;5.10;2.13;;;;;;;;;;4999334;28;20211;-59
2022/06/24 10:11:52;;;;;;;4.40;2.03;;;;;;;;;;4999016;28;20264;-58
2022/06/24 10:14:21;;;;;;;5.83;2.40;;;;;;;;;;4999235;28;20279;-58
2022/06/24 10:16:49;;;;;;;3.73;2.10;;;;;;;;;;5007925;28;20208;-58
2022/06/24 10:19:19;;;;;;;3.10;1.60;;;;;;;;;;5003499;28;20219;-58
2022/06/24 10:21:50;;;;;;;5.60;2.00;;;;;;;;;;4999129;28;20235;-59
2022/06/24 10:24:18;;;;;;;4.57;1.67;;;;;;;;;;5018849;28;20345;-59
2022/06/24 10:26:48;;;;;;;3.10;1.90;;;;;;;;;;4998939;28;20247;-58
2022/06/24 10:29:23;;;;;;;3.43;2.00;;;;;;;;;;4999106;28;20208;-59
2022/06/24 10:31:52;;;;;;;3.33;1.77;;;;;;;;;;4999036;28;20232;-59
2022/06/24 10:34:34;;;;;;;3.90;1.77;;;;;;;;;;4999928;28;20224;-59
2022/06/24 10:37:04;;;;;;;4.13;1.80;;;;;;;;;;4997870;28;20208;-58
2022/06/24 10:39:33;;;;;;;3.20;2.50;;;;;;;;;;4998929;28;20209;-59
2022/06/24 10:42:03;;;;;;;3.63;2.20;;;;;;;;;;4998438;28;20245;-59
2022/06/24 10:44:32;;;;;;;6.47;2.30;;;;;;;;;;5000877;28;20275;-59
2022/06/24 10:47:19;;;;;;;6.33;2.53;;;;;;;;;;4998897;28;20219;-59
2022/06/24 10:50:00;;;;;;;3.33;1.77;;;;;;;;;;4992429;28;20208;-58
2022/06/24 10:52:31;;;;;;;4.63;2.27;;;;;;;;;;4998503;28;20229;-59
2022/06/24 10:55:20;;;;;;;5.23;2.37;;;;;;;;;;4998276;28;20597;-59
2022/06/24 10:57:50;;;;;;;2.13;1.77;;;;;;;;;;4998219;28;20240;-58
2022/06/24 11:00:19;;;;;;;3.03;2.23;;;;;;;;;;5005491;28;20212;-58
2022/06/24 11:02:51;;;;;;;2.67;1.53;;;;;;;;;;5017533;28;20664;-58
2022/06/24 11:05:23;;;;;;;2.90;1.60;;;;;;;;;;5017949;28;20243;-59
2022/06/24 11:07:51;;;;;;;1.83;1.50;;;;;;;;;;5018084;28;20263;-59
2022/06/24 11:10:20;;;;;;;2.37;1.47;;;;;;;;;;5017764;28;20208;-59
2022/06/24 11:12:48;;;;;;;2.30;1.30;;;;;;;;;;5017843;28;20248;-59
2022/06/24 11:15:17;;;;;;;2.60;1.40;;;;;;;;;;5017777;28;20239;-58
2022/06/24 11:17:45;;;;;;;2.70;1.30;;;;;;;;;;5014637;28;20201;-58
2022/06/24 11:20:14;;;;;;;3.30;1.40;;;;;;;;;;4998249;28;20236;-58
2022/06/24 11:22:43;;;;;;;1.93;1.23;;;;;;;;;;4998788;28;20220;-58
2022/06/24 11:25:12;;;;;;;4.93;1.30;;;;;;;;;;5015292;28;20212;-58
2022/06/24 11:27:40;;;;;;;1.70;1.60;;;;;;;;;;4997972;28;20236;-57
2022/06/24 11:30:08;;;;;;;2.33;1.60;;;;;;;;;;4997973;28;20204;-58
2022/06/24 11:32:54;;;;;;;1.23;1.07;;;;;;;;;;5004717;28;20319;-58
2022/06/24 11:35:23;;;;;;;1.50;1.30;;;;;;;;;;5002800;28;20231;-58
2022/06/24 11:37:51;;;;;;;1.63;1.27;;;;;;;;;;4998030;28;20746;-58
2022/06/24 11:40:23;;;;;;;2.10;1.53;;;;;;;;;;4997871;28;20259;-58
2022/06/24 11:42:52;;;;;;;1.00;0.93;;;;;;;;;;4997825;28;20573;-58
2022/06/24 11:45:33;;;;;;;4.50;1.33;;;;;;;;;;5000370;28;20205;-58
2022/06/24 11:48:02;;;;;;;1.33;1.23;;;;;;;;;;5000638;28;20215;-59
2022/06/24 11:50:32;;;;;;;3.43;1.13;;;;;;;;;;5001863;28;20691;-60
2022/06/24 11:53:00;;;;;;;1.80;1.30;;;;;;;;;;5001993;28;20236;-59
2022/06/24 11:55:34;;;;;;;1.63;1.00;;;;;;;;;;5008683;28;20295;-60
2022/06/24 11:58:03;;;;;;;1.23;1.13;;;;;;;;;;5020898;28;20263;-60
2022/06/24 12:00:32;;;;;;;2.30;1.20;;;;;;;;;;5021562;28;20212;-60
2022/06/24 12:03:00;;;;;;;4.83;0.90;;;;;;;;;;5021062;28;20706;-58
2022/06/24 12:05:31;;;;;;;0.90;0.90;;;;;;;;;;5021236;28;20212;-60
2022/06/24 12:07:59;;;;;;;0.93;0.80;;;;;;;;;;5021033;28;20274;-60
2022/06/24 12:10:28;;;;;;;1.67;0.60;;;;;;;;;;5020874;28;20212;-60
2022/06/24 12:13:01;;;;;;;2.63;0.73;;;;;;;;;;5020691;28;20244;-58
2022/06/24 12:15:34;;;;;;;1.10;0.73;;;;;;;;;;5021146;28;20213;-57
2022/06/24 12:18:03;;;;;;;2.87;0.87;;;;;;;;;;5015497;28;20208;-57
2022/06/24 12:20:32;;;;;;;1.30;0.80;;;;;;;;;;5001320;28;20688;-58
2022/06/24 12:23:19;;;;;;;0.60;0.60;;;;;;;;;;5007084;28;20220;-59
2022/06/24 12:25:48;;;;;;;1.30;0.70;;;;;;;;;;5009170;28;20236;-60
2022/06/24 12:28:17;;;;;;;2.23;0.70;;;;;;;;;;5001428;28;20212;-59
2022/06/24 12:30:58;;;;;;;1.30;0.70;;;;;;;;;;5001307;28;20236;-59
2022/06/24 12:33:27;;;;;;;1.20;0.90;;;;;;;;;;5001186;28;20233;-59
2022/06/24 12:36:08;;;;;;;1.07;0.50;;;;;;;;;;5015159;28;20292;-59
2022/06/24 12:38:37;;;;;;;0.97;0.43;;;;;;;;;;5001298;28;20248;-60
2022/06/24 12:41:13;;;;;;;1.20;0.47;;;;;;;;;;5000658;28;20254;-60
2022/06/24 12:43:54;;;;;;;0.40;0.40;;;;;;;;;;5003392;28;20230;-60
2022/06/24 12:46:23;;;;;;;0.73;0.70;;;;;;;;;;5001103;28;20210;-60
2022/06/24 12:51:41;;;;;;;0.53;0.40;;;;;;;;;;5000911;28;20214;-60
2022/06/24 12:54:09;;;;;;;0.80;0.60;;;;;;;;;;5000644;28;20271;-60
2022/06/24 12:56:37;;;;;;;0.60;0.60;;;;;;;;;;5000412;28;20209;-60
2022/06/24 12:59:06;;;;;;;0.80;0.60;;;;;;;;;;4999929;28;20267;-60
2022/06/24 13:01:40;;;;;;;0.30;0.30;;;;;;;;;;5000863;28;20240;-60
2022/06/24 13:04:08;;;;;;;0.50;0.50;;;;;;;;;;5000564;28;20220;-60
2022/06/24 13:06:36;;;;;;;0.73;0.50;;;;;;;;;;5000383;28;20582;-60
2022/06/24 13:09:07;;;;;;;0.60;0.60;;;;;;;;;;5000398;28;20223;-60
2022/06/24 13:11:35;;;;;;;1.13;0.50;;;;;;;;;;5000224;28;20227;-60
2022/06/24 13:14:04;;;;;;;0.70;0.50;;;;;;;;;;5000104;28;20743;-60
2022/06/24 13:16:32;;;;;;;0.70;0.70;;;;;;;;;;5007447;28;20250;-60
2022/06/24 13:19:00;;;;;;;2.33;0.60;;;;;;;;;;5006216;28;20725;-60
2022/06/24 13:21:28;;;;;;;0.50;0.27;;;;;;;;;;5000182;28;20746;-60
2022/06/24 13:23:56;;;;;;;0.50;0.50;;;;;;;;;;5019717;28;20226;-60
2022/06/24 13:26:25;;;;;;;1.70;0.63;;;;;;;;;;4999812;28;20258;-60
2022/06/24 13:28:53;;;;;;;0.97;0.60;;;;;;;;;;5000080;28;20262;-60
2022/06/24 13:31:22;;;;;;;3.30;0.60;;;;;;;;;;5000280;28;20240;-60
2022/06/24 13:33:50;;;;;;;0.50;0.50;;;;;;;;;;5001719;28;20267;-60
2022/06/24 13:36:18;;;;;;;0.50;0.50;;;;;;;;;;5000070;28;20248;-60
2022/06/24 13:38:47;;;;;;;1.93;0.63;;;;;;;;;;5000025;28;20914;-60
2022/06/24 13:41:15;;;;;;;2.40;0.80;;;;;;;;;;4999692;28;20209;-60
2022/06/24 13:43:45;;;;;;;2.80;0.63;;;;;;;;;;5002311;28;20268;-60
2022/06/24 13:46:13;;;;;;;0.50;0.50;;;;;;;;;;5000144;28;20217;-60
2022/06/24 13:48:41;;;;;;;0.60;0.50;;;;;;;;;;4999793;28;20239;-60
2022/06/24 13:51:09;;;;;;;3.73;0.60;;;;;;;;;;4999682;28;20255;-60
2022/06/24 13:53:37;;;;;;;1.07;0.70;;;;;;;;;;4999559;28;20266;-60
2022/06/24 13:56:05;;;;;;;0.50;0.50;;;;;;;;;;4999487;28;20206;-60
2022/06/24 13:58:36;;;;;;;0.70;0.70;;;;;;;;;;4999100;28;20258;-60
2022/06/24 14:01:05;;;;;;;1.57;0.67;;;;;;;;;;4999472;28;20598;-60
2022/06/24 14:03:33;;;;;;;1.60;0.70;;;;;;;;;;5006388;28;20256;-60
2022/06/24 14:06:01;;;;;;;1.67;0.70;;;;;;;;;;5019174;28;20236;-60
2022/06/24 14:08:29;;;;;;;0.70;0.70;;;;;;;;;;5019082;28;20262;-60
2022/06/24 14:10:57;;;;;;;1.53;0.70;;;;;;;;;;5018177;28;20599;-60
2022/06/24 14:13:25;;;;;;;0.40;0.40;;;;;;;;;;5018641;28;20299;-60
2022/06/24 14:15:53;;;;;;;1.97;0.70;;;;;;;;;;5018704;28;20249;-60
2022/06/24 14:18:23;;;;;;;1.13;0.83;;;;;;;;;;5010728;28;20242;-60
2022/06/24 14:20:51;;;;;;;2.60;0.70;;;;;;;;;;4999108;28;20301;-60
2022/06/24 14:26:04;;;;;;;0.90;0.87;;;;;;;;;;5001119;28;20214;-60
2022/06/24 14:28:32;;;;;;;0.80;0.80;;;;;;;;;;4999048;28;20241;-60
2022/06/24 14:31:01;;;;;;;0.70;0.70;;;;;;;;;;4998853;28;20214;-60
2022/06/24 14:33:30;;;;;;;2.80;0.90;;;;;;;;;;4999002;28;20362;-60
2022/06/24 14:35:58;;;;;;;0.90;0.90;;;;;;;;;;4998713;28;20257;-60
2022/06/24 14:41:11;;;;;;;1.03;0.93;;;;;;;;;;4998135;28;20626;-60
2022/06/24 14:43:39;;;;;;;1.03;0.77;;;;;;;;;;5000455;28;20228;-60
2022/06/24 14:46:07;;;;;;;0.70;0.70;;;;;;;;;;4998858;28;20240;-60
2022/06/24 14:48:37;;;;;;;0.90;0.80;;;;;;;;;;4998345;28;20746;-60
2022/06/24 14:51:05;;;;;;;1.30;0.80;;;;;;;;;;4998156;28;20742;-60
2022/06/24 14:53:33;;;;;;;3.40;0.70;;;;;;;;;;4998148;28;20588;-60
2022/06/24 14:56:01;;;;;;;0.63;0.60;;;;;;;;;;4997862;28;20552;-60
2022/06/24 14:58:29;;;;;;;1.67;0.60;;;;;;;;;;4998064;28;20608;-60
2022/06/24 15:00:57;;;;;;;1.17;0.60;;;;;;;;;;4998353;28;20209;-60
2022/06/24 15:03:26;;;;;;;1.30;0.77;;;;;;;;;;4998311;28;20232;-60
2022/06/24 15:05:55;;;;;;;1.30;0.53;;;;;;;;;;4998438;28;20219;-60
2022/06/24 15:08:23;;;;;;;0.60;0.60;;;;;;;;;;4998197;28;20268;-61
2022/06/24 15:10:53;;;;;;;1.60;0.73;;;;;;;;;;4998054;28;20240;-60
2022/06/24 15:13:21;;;;;;;1.67;0.80;;;;;;;;;;5005109;28;20238;-60